sensor_id;sensor_type;location;lat;lon;timestamp;P1;durP1;ratioP1;P2;durP2;ratioP2
45206;SDS011;30950;53.086;21.576;2023-02-28T00:01:25;144.35;;;59.38;;
45206;SDS011;30950;53.086;21.576;2023-02-28T00:03:54;154.90;;;60.40;;
45206;SDS011;30950;53.086;21.576;2023-02-28T00:06:21;151.30;;;64.90;;
45206;SDS011;30950;53.086;21.576;2023-02-28T00:08:49;162.70;;;67.22;;
45206;SDS011;30950;53.086;21.576;2023-02-28T00:11:17;188.90;;;71.25;;
45206;SDS011;30950;53.086;21.576;2023-02-28T00:13:45;176.07;;;67.25;;
45206;SDS011;30950;53.086;21.576;2023-02-28T00:16:18;171.18;;;67.47;;
45206;SDS011;30950;53.086;21.576;2023-02-28T00:18:47;176.95;;;69.53;;
45206;SDS011;30950;53.086;21.576;2023-02-28T00:21:15;171.80;;;68.72;;
45206;SDS011;30950;53.086;21.576;2023-02-28T00:23:44;185.70;;;77.38;;
45206;SDS011;30950;53.086;21.576;2023-02-28T00:26:12;199.52;;;77.32;;
45206;SDS011;30950;53.086;21.576;2023-02-28T00:28:43;188.50;;;69.95;;
45206;SDS011;30950;53.086;21.576;2023-02-28T00:31:11;173.07;;;68.45;;
45206;SDS011;30950;53.086;21.576;2023-02-28T00:33:38;173.45;;;71.90;;
45206;SDS011;30950;53.086;21.576;2023-02-28T00:36:07;192.35;;;75.97;;
45206;SDS011;30950;53.086;21.576;2023-02-28T00:38:36;198.15;;;78.18;;
45206;SDS011;30950;53.086;21.576;2023-02-28T00:41:04;198.88;;;80.38;;
45206;SDS011;30950;53.086;21.576;2023-02-28T00:43:37;193.40;;;82.60;;
45206;SDS011;30950;53.086;21.576;2023-02-28T00:46:08;171.73;;;65.10;;
45206;SDS011;30950;53.086;21.576;2023-02-28T00:48:35;174.23;;;69.43;;
45206;SDS011;30950;53.086;21.576;2023-02-28T00:51:03;187.07;;;72.78;;
45206;SDS011;30950;53.086;21.576;2023-02-28T00:53:31;198.93;;;75.15;;
45206;SDS011;30950;53.086;21.576;2023-02-28T00:55:59;176.25;;;71.10;;
45206;SDS011;30950;53.086;21.576;2023-02-28T00:58:27;182.35;;;72.40;;
45206;SDS011;30950;53.086;21.576;2023-02-28T01:00:54;178.95;;;77.03;;
45206;SDS011;30950;53.086;21.576;2023-02-28T01:03:22;179.23;;;76.28;;
45206;SDS011;30950;53.086;21.576;2023-02-28T01:05:50;177.23;;;69.20;;
45206;SDS011;30950;53.086;21.576;2023-02-28T01:08:17;174.75;;;67.30;;
45206;SDS011;30950;53.086;21.576;2023-02-28T01:10:45;165.98;;;69.00;;
45206;SDS011;30950;53.086;21.576;2023-02-28T01:13:13;176.70;;;74.28;;
45206;SDS011;30950;53.086;21.576;2023-02-28T01:15:41;175.10;;;68.57;;
45206;SDS011;30950;53.086;21.576;2023-02-28T01:18:15;181.18;;;78.80;;
45206;SDS011;30950;53.086;21.576;2023-02-28T01:20:43;175.48;;;71.90;;
45206;SDS011;30950;53.086;21.576;2023-02-28T01:23:11;179.68;;;72.03;;
45206;SDS011;30950;53.086;21.576;2023-02-28T01:25:38;156.77;;;67.07;;
45206;SDS011;30950;53.086;21.576;2023-02-28T01:28:06;170.88;;;67.05;;
45206;SDS011;30950;53.086;21.576;2023-02-28T01:30:34;166.07;;;68.60;;
45206;SDS011;30950;53.086;21.576;2023-02-28T01:33:01;165.40;;;71.45;;
45206;SDS011;30950;53.086;21.576;2023-02-28T01:35:32;164.35;;;72.57;;
45206;SDS011;30950;53.086;21.576;2023-02-28T01:38:01;179.43;;;70.30;;
45206;SDS011;30950;53.086;21.576;2023-02-28T01:40:46;159.68;;;65.78;;
45206;SDS011;30950;53.086;21.576;2023-02-28T01:43:31;159.32;;;63.47;;
45206;SDS011;30950;53.086;21.576;2023-02-28T01:46:11;156.57;;;65.27;;
45206;SDS011;30950;53.086;21.576;2023-02-28T01:48:42;185.55;;;72.90;;
45206;SDS011;30950;53.086;21.576;2023-02-28T01:51:39;172.88;;;71.93;;
45206;SDS011;30950;53.086;21.576;2023-02-28T01:54:22;172.15;;;68.40;;
45206;SDS011;30950;53.086;21.576;2023-02-28T01:56:57;155.50;;;66.63;;
45206;SDS011;30950;53.086;21.576;2023-02-28T01:59:37;152.07;;;60.15;;
45206;SDS011;30950;53.086;21.576;2023-02-28T02:02:13;148.82;;;59.58;;
45206;SDS011;30950;53.086;21.576;2023-02-28T02:04:43;166.40;;;68.65;;
45206;SDS011;30950;53.086;21.576;2023-02-28T02:07:25;162.73;;;66.07;;
45206;SDS011;30950;53.086;21.576;2023-02-28T02:10:13;159.05;;;66.25;;
45206;SDS011;30950;53.086;21.576;2023-02-28T02:13:08;151.77;;;63.40;;
45206;SDS011;30950;53.086;21.576;2023-02-28T02:15:40;156.48;;;63.20;;
45206;SDS011;30950;53.086;21.576;2023-02-28T02:29:41;189.88;;;72.78;;
45206;SDS011;30950;53.086;21.576;2023-02-28T02:37:24;211.45;;;83.25;;
45206;SDS011;30950;53.086;21.576;2023-02-28T02:40:13;184.95;;;72.20;;
45206;SDS011;30950;53.086;21.576;2023-02-28T02:42:49;205.60;;;76.45;;
45206;SDS011;30950;53.086;21.576;2023-02-28T02:45:22;204.77;;;79.63;;
45206;SDS011;30950;53.086;21.576;2023-02-28T02:48:15;199.30;;;81.13;;
45206;SDS011;30950;53.086;21.576;2023-02-28T02:50:49;212.70;;;86.00;;
45206;SDS011;30950;53.086;21.576;2023-02-28T02:53:46;200.30;;;77.05;;
45206;SDS011;30950;53.086;21.576;2023-02-28T02:56:20;194.95;;;80.47;;
45206;SDS011;30950;53.086;21.576;2023-02-28T02:58:51;213.77;;;83.50;;
45206;SDS011;30950;53.086;21.576;2023-02-28T03:01:23;193.15;;;77.82;;
45206;SDS011;30950;53.086;21.576;2023-02-28T03:04:00;180.63;;;70.78;;
45206;SDS011;30950;53.086;21.576;2023-02-28T03:06:34;164.50;;;67.75;;
45206;SDS011;30950;53.086;21.576;2023-02-28T03:09:02;161.23;;;66.25;;
45206;SDS011;30950;53.086;21.576;2023-02-28T03:11:31;154.57;;;66.40;;
45206;SDS011;30950;53.086;21.576;2023-02-28T03:27:52;141.00;;;55.80;;
45206;SDS011;30950;53.086;21.576;2023-02-28T03:30:35;137.27;;;58.80;;
45206;SDS011;30950;53.086;21.576;2023-02-28T03:33:16;146.50;;;59.92;;
45206;SDS011;30950;53.086;21.576;2023-02-28T03:35:49;140.77;;;58.45;;
45206;SDS011;30950;53.086;21.576;2023-02-28T03:38:45;149.65;;;57.65;;
45206;SDS011;30950;53.086;21.576;2023-02-28T03:41:17;143.77;;;57.15;;
45206;SDS011;30950;53.086;21.576;2023-02-28T03:43:53;125.97;;;49.63;;
45206;SDS011;30950;53.086;21.576;2023-02-28T03:46:28;126.63;;;48.90;;
45206;SDS011;30950;53.086;21.576;2023-02-28T03:49:10;132.70;;;52.30;;
45206;SDS011;30950;53.086;21.576;2023-02-28T03:51:43;135.65;;;53.35;;
45206;SDS011;30950;53.086;21.576;2023-02-28T03:54:15;137.02;;;53.30;;
45206;SDS011;30950;53.086;21.576;2023-02-28T04:02:08;119.10;;;46.25;;
45206;SDS011;30950;53.086;21.576;2023-02-28T04:04:36;134.20;;;49.90;;
45206;SDS011;30950;53.086;21.576;2023-02-28T04:07:07;127.13;;;51.83;;
45206;SDS011;30950;53.086;21.576;2023-02-28T04:09:35;138.73;;;53.03;;
45206;SDS011;30950;53.086;21.576;2023-02-28T04:12:02;137.10;;;50.60;;
45206;SDS011;30950;53.086;21.576;2023-02-28T04:14:30;132.00;;;53.88;;
45206;SDS011;30950;53.086;21.576;2023-02-28T04:16:57;130.43;;;51.05;;
45206;SDS011;30950;53.086;21.576;2023-02-28T04:19:25;145.25;;;52.45;;
45206;SDS011;30950;53.086;21.576;2023-02-28T04:21:52;129.25;;;56.90;;
45206;SDS011;30950;53.086;21.576;2023-02-28T04:24:25;146.25;;;56.88;;
45206;SDS011;30950;53.086;21.576;2023-02-28T04:26:55;146.38;;;55.22;;
45206;SDS011;30950;53.086;21.576;2023-02-28T04:29:25;134.40;;;55.30;;
45206;SDS011;30950;53.086;21.576;2023-02-28T04:31:57;143.05;;;54.05;;
45206;SDS011;30950;53.086;21.576;2023-02-28T04:34:26;138.13;;;56.00;;
45206;SDS011;30950;53.086;21.576;2023-02-28T04:36:55;133.52;;;53.42;;
45206;SDS011;30950;53.086;21.576;2023-02-28T04:39:38;147.13;;;58.65;;
45206;SDS011;30950;53.086;21.576;2023-02-28T04:42:06;161.32;;;56.40;;
45206;SDS011;30950;53.086;21.576;2023-02-28T04:44:33;152.40;;;56.72;;
45206;SDS011;30950;53.086;21.576;2023-02-28T04:47:01;153.70;;;59.20;;
45206;SDS011;30950;53.086;21.576;2023-02-28T04:49:28;154.45;;;62.45;;
45206;SDS011;30950;53.086;21.576;2023-02-28T04:51:56;161.10;;;60.05;;
45206;SDS011;30950;53.086;21.576;2023-02-28T04:54:24;141.57;;;55.08;;
45206;SDS011;30950;53.086;21.576;2023-02-28T04:56:51;139.18;;;53.78;;
45206;SDS011;30950;53.086;21.576;2023-02-28T04:59:18;150.27;;;57.38;;
45206;SDS011;30950;53.086;21.576;2023-02-28T05:01:47;151.85;;;56.55;;
45206;SDS011;30950;53.086;21.576;2023-02-28T05:04:15;135.05;;;55.10;;
45206;SDS011;30950;53.086;21.576;2023-02-28T05:06:43;143.98;;;53.38;;
45206;SDS011;30950;53.086;21.576;2023-02-28T05:09:10;139.90;;;53.13;;
45206;SDS011;30950;53.086;21.576;2023-02-28T05:11:41;135.15;;;49.90;;
45206;SDS011;30950;53.086;21.576;2023-02-28T05:14:12;133.85;;;49.05;;
45206;SDS011;30950;53.086;21.576;2023-02-28T05:16:41;133.07;;;51.20;;
45206;SDS011;30950;53.086;21.576;2023-02-28T05:19:08;142.70;;;53.80;;
45206;SDS011;30950;53.086;21.576;2023-02-28T05:21:37;140.45;;;52.60;;
45206;SDS011;30950;53.086;21.576;2023-02-28T05:24:09;133.95;;;53.58;;
45206;SDS011;30950;53.086;21.576;2023-02-28T05:26:42;144.07;;;51.95;;
45206;SDS011;30950;53.086;21.576;2023-02-28T05:29:09;118.93;;;48.67;;
45206;SDS011;30950;53.086;21.576;2023-02-28T05:31:37;130.13;;;49.58;;
45206;SDS011;30950;53.086;21.576;2023-02-28T05:34:05;134.57;;;51.20;;
45206;SDS011;30950;53.086;21.576;2023-02-28T05:36:32;132.70;;;51.45;;
45206;SDS011;30950;53.086;21.576;2023-02-28T05:39:00;133.10;;;52.42;;
45206;SDS011;30950;53.086;21.576;2023-02-28T05:41:27;132.15;;;52.97;;
45206;SDS011;30950;53.086;21.576;2023-02-28T05:43:57;127.65;;;49.67;;
45206;SDS011;30950;53.086;21.576;2023-02-28T05:46:24;127.18;;;50.53;;
45206;SDS011;30950;53.086;21.576;2023-02-28T05:48:52;117.88;;;46.65;;
45206;SDS011;30950;53.086;21.576;2023-02-28T05:51:19;126.78;;;51.53;;
45206;SDS011;30950;53.086;21.576;2023-02-28T05:53:46;133.77;;;56.25;;
45206;SDS011;30950;53.086;21.576;2023-02-28T05:56:15;116.82;;;52.40;;
45206;SDS011;30950;53.086;21.576;2023-02-28T05:58:43;122.15;;;50.28;;
45206;SDS011;30950;53.086;21.576;2023-02-28T06:04:09;109.72;;;46.00;;
45206;SDS011;30950;53.086;21.576;2023-02-28T06:06:55;107.72;;;46.75;;
45206;SDS011;30950;53.086;21.576;2023-02-28T06:09:24;108.10;;;46.30;;
45206;SDS011;30950;53.086;21.576;2023-02-28T06:11:51;114.65;;;50.20;;
45206;SDS011;30950;53.086;21.576;2023-02-28T06:14:19;117.55;;;50.05;;
45206;SDS011;30950;53.086;21.576;2023-02-28T06:16:47;111.93;;;49.78;;
45206;SDS011;30950;53.086;21.576;2023-02-28T06:19:14;104.10;;;48.00;;
45206;SDS011;30950;53.086;21.576;2023-02-28T06:21:42;100.68;;;41.20;;
45206;SDS011;30950;53.086;21.576;2023-02-28T06:24:10;92.60;;;42.88;;
45206;SDS011;30950;53.086;21.576;2023-02-28T06:26:38;102.63;;;51.47;;
45206;SDS011;30950;53.086;21.576;2023-02-28T06:29:05;98.75;;;48.40;;
45206;SDS011;30950;53.086;21.576;2023-02-28T06:31:34;106.88;;;50.58;;
45206;SDS011;30950;53.086;21.576;2023-02-28T06:34:01;94.13;;;45.08;;
45206;SDS011;30950;53.086;21.576;2023-02-28T06:36:29;107.53;;;44.85;;
45206;SDS011;30950;53.086;21.576;2023-02-28T06:38:56;104.32;;;48.22;;
45206;SDS011;30950;53.086;21.576;2023-02-28T06:41:25;120.00;;;51.90;;
45206;SDS011;30950;53.086;21.576;2023-02-28T06:43:53;103.65;;;45.35;;
45206;SDS011;30950;53.086;21.576;2023-02-28T06:46:21;106.68;;;46.17;;
45206;SDS011;30950;53.086;21.576;2023-02-28T06:48:48;105.30;;;45.00;;
45206;SDS011;30950;53.086;21.576;2023-02-28T06:51:17;102.97;;;44.05;;
45206;SDS011;30950;53.086;21.576;2023-02-28T06:53:50;119.85;;;44.88;;
45206;SDS011;30950;53.086;21.576;2023-02-28T06:56:18;121.97;;;51.40;;
45206;SDS011;30950;53.086;21.576;2023-02-28T06:58:47;93.50;;;42.90;;
45206;SDS011;30950;53.086;21.576;2023-02-28T07:01:16;104.40;;;43.85;;
45206;SDS011;30950;53.086;21.576;2023-02-28T07:03:44;95.88;;;44.00;;
45206;SDS011;30950;53.086;21.576;2023-02-28T07:06:12;93.97;;;41.22;;
45206;SDS011;30950;53.086;21.576;2023-02-28T07:08:39;119.60;;;52.67;;
45206;SDS011;30950;53.086;21.576;2023-02-28T07:11:08;116.68;;;58.17;;
45206;SDS011;30950;53.086;21.576;2023-02-28T07:13:35;132.70;;;60.47;;
45206;SDS011;30950;53.086;21.576;2023-02-28T07:16:04;144.10;;;58.90;;
45206;SDS011;30950;53.086;21.576;2023-02-28T07:18:33;187.98;;;87.32;;
45206;SDS011;30950;53.086;21.576;2023-02-28T07:21:04;224.60;;;100.85;;
45206;SDS011;30950;53.086;21.576;2023-02-28T07:23:33;105.55;;;49.65;;
45206;SDS011;30950;53.086;21.576;2023-02-28T07:26:01;84.20;;;39.35;;
45206;SDS011;30950;53.086;21.576;2023-02-28T07:28:28;60.70;;;29.23;;
45206;SDS011;30950;53.086;21.576;2023-02-28T07:30:56;62.42;;;28.52;;
45206;SDS011;30950;53.086;21.576;2023-02-28T07:33:23;46.90;;;23.13;;
45206;SDS011;30950;53.086;21.576;2023-02-28T07:35:50;49.08;;;24.50;;
45206;SDS011;30950;53.086;21.576;2023-02-28T07:38:18;40.47;;;22.92;;
45206;SDS011;30950;53.086;21.576;2023-02-28T07:40:45;48.10;;;25.05;;
45206;SDS011;30950;53.086;21.576;2023-02-28T07:43:12;38.53;;;18.70;;
45206;SDS011;30950;53.086;21.576;2023-02-28T07:45:40;28.92;;;15.68;;
45206;SDS011;30950;53.086;21.576;2023-02-28T07:48:07;34.75;;;17.33;;
45206;SDS011;30950;53.086;21.576;2023-02-28T07:50:37;27.38;;;15.93;;
45206;SDS011;30950;53.086;21.576;2023-02-28T07:53:04;31.00;;;17.08;;
45206;SDS011;30950;53.086;21.576;2023-02-28T07:55:31;35.00;;;17.05;;
45206;SDS011;30950;53.086;21.576;2023-02-28T07:57:59;42.55;;;22.70;;
45206;SDS011;30950;53.086;21.576;2023-02-28T08:00:26;41.22;;;18.33;;
45206;SDS011;30950;53.086;21.576;2023-02-28T08:02:55;31.65;;;16.98;;
45206;SDS011;30950;53.086;21.576;2023-02-28T08:05:23;29.13;;;16.90;;
45206;SDS011;30950;53.086;21.576;2023-02-28T08:07:50;27.92;;;14.80;;
45206;SDS011;30950;53.086;21.576;2023-02-28T08:10:18;29.05;;;14.95;;
45206;SDS011;30950;53.086;21.576;2023-02-28T08:12:45;25.35;;;12.80;;
45206;SDS011;30950;53.086;21.576;2023-02-28T08:15:12;25.58;;;14.07;;
45206;SDS011;30950;53.086;21.576;2023-02-28T08:17:40;23.98;;;13.57;;
45206;SDS011;30950;53.086;21.576;2023-02-28T08:20:07;24.48;;;13.68;;
45206;SDS011;30950;53.086;21.576;2023-02-28T08:22:35;25.38;;;12.98;;
45206;SDS011;30950;53.086;21.576;2023-02-28T08:25:03;23.75;;;12.27;;
45206;SDS011;30950;53.086;21.576;2023-02-28T08:27:31;21.40;;;12.00;;
45206;SDS011;30950;53.086;21.576;2023-02-28T08:29:58;20.67;;;11.02;;
45206;SDS011;30950;53.086;21.576;2023-02-28T08:32:25;32.92;;;18.77;;
45206;SDS011;30950;53.086;21.576;2023-02-28T08:34:56;21.45;;;11.13;;
45206;SDS011;30950;53.086;21.576;2023-02-28T08:37:24;15.07;;;8.98;;
45206;SDS011;30950;53.086;21.576;2023-02-28T08:39:51;21.45;;;13.15;;
45206;SDS011;30950;53.086;21.576;2023-02-28T08:42:22;23.58;;;10.48;;
45206;SDS011;30950;53.086;21.576;2023-02-28T08:44:50;22.45;;;10.88;;
45206;SDS011;30950;53.086;21.576;2023-02-28T08:47:18;30.65;;;18.85;;
45206;SDS011;30950;53.086;21.576;2023-02-28T08:49:45;16.23;;;9.27;;
45206;SDS011;30950;53.086;21.576;2023-02-28T08:52:13;14.00;;;7.75;;
45206;SDS011;30950;53.086;21.576;2023-02-28T08:54:40;18.20;;;10.30;;
45206;SDS011;30950;53.086;21.576;2023-02-28T08:57:07;31.80;;;20.70;;
45206;SDS011;30950;53.086;21.576;2023-02-28T08:59:35;16.88;;;10.70;;
45206;SDS011;30950;53.086;21.576;2023-02-28T09:02:03;12.32;;;7.00;;
45206;SDS011;30950;53.086;21.576;2023-02-28T09:04:30;13.07;;;8.00;;
45206;SDS011;30950;53.086;21.576;2023-02-28T09:06:57;12.63;;;8.07;;
45206;SDS011;30950;53.086;21.576;2023-02-28T09:09:25;14.43;;;7.90;;
45206;SDS011;30950;53.086;21.576;2023-02-28T09:11:52;15.90;;;9.27;;
45206;SDS011;30950;53.086;21.576;2023-02-28T09:14:23;13.50;;;7.05;;
45206;SDS011;30950;53.086;21.576;2023-02-28T09:16:50;14.38;;;6.90;;
45206;SDS011;30950;53.086;21.576;2023-02-28T09:19:17;11.75;;;7.28;;
45206;SDS011;30950;53.086;21.576;2023-02-28T09:21:44;14.13;;;7.55;;
45206;SDS011;30950;53.086;21.576;2023-02-28T09:24:12;12.35;;;7.78;;
45206;SDS011;30950;53.086;21.576;2023-02-28T09:26:41;12.23;;;6.90;;
45206;SDS011;30950;53.086;21.576;2023-02-28T09:29:29;12.93;;;7.43;;
45206;SDS011;30950;53.086;21.576;2023-02-28T09:31:57;14.32;;;8.10;;
45206;SDS011;30950;53.086;21.576;2023-02-28T09:34:26;14.18;;;7.25;;
45206;SDS011;30950;53.086;21.576;2023-02-28T09:36:54;10.88;;;6.70;;
45206;SDS011;30950;53.086;21.576;2023-02-28T09:39:22;10.15;;;6.53;;
45206;SDS011;30950;53.086;21.576;2023-02-28T09:41:51;10.60;;;6.07;;
45206;SDS011;30950;53.086;21.576;2023-02-28T09:47:46;10.55;;;6.88;;
45206;SDS011;30950;53.086;21.576;2023-02-28T09:49:54;12.18;;;6.82;;
45206;SDS011;30950;53.086;21.576;2023-02-28T09:52:30;12.68;;;7.38;;
45206;SDS011;30950;53.086;21.576;2023-02-28T09:55:00;13.27;;;7.13;;
45206;SDS011;30950;53.086;21.576;2023-02-28T09:57:49;13.68;;;6.55;;
45206;SDS011;30950;53.086;21.576;2023-02-28T10:00:19;12.25;;;5.97;;
45206;SDS011;30950;53.086;21.576;2023-02-28T10:05:27;11.85;;;6.75;;
45206;SDS011;30950;53.086;21.576;2023-02-28T10:10:41;11.32;;;7.03;;
45206;SDS011;30950;53.086;21.576;2023-02-28T10:16:22;15.73;;;8.80;;
45206;SDS011;30950;53.086;21.576;2023-02-28T10:19:05;11.00;;;6.50;;
45206;SDS011;30950;53.086;21.576;2023-02-28T10:21:41;9.43;;;6.22;;
45206;SDS011;30950;53.086;21.576;2023-02-28T10:26:58;14.00;;;6.38;;
45206;SDS011;30950;53.086;21.576;2023-02-28T10:29:28;12.50;;;6.68;;
45206;SDS011;30950;53.086;21.576;2023-02-28T10:32:00;36.25;;;16.73;;
45206;SDS011;30950;53.086;21.576;2023-02-28T10:34:29;11.77;;;7.43;;
45206;SDS011;30950;53.086;21.576;2023-02-28T10:36:57;30.38;;;16.42;;
45206;SDS011;30950;53.086;21.576;2023-02-28T10:39:41;13.20;;;6.97;;
45206;SDS011;30950;53.086;21.576;2023-02-28T10:42:23;13.68;;;7.25;;
45206;SDS011;30950;53.086;21.576;2023-02-28T10:45:06;13.07;;;7.28;;
45206;SDS011;30950;53.086;21.576;2023-02-28T10:50:35;15.70;;;6.80;;
45206;SDS011;30950;53.086;21.576;2023-02-28T10:53:17;40.55;;;22.73;;
45206;SDS011;30950;53.086;21.576;2023-02-28T10:56:00;29.58;;;16.23;;
45206;SDS011;30950;53.086;21.576;2023-02-28T11:07:01;20.13;;;13.07;;
45206;SDS011;30950;53.086;21.576;2023-02-28T11:09:35;12.60;;;7.50;;
45206;SDS011;30950;53.086;21.576;2023-02-28T11:12:06;11.93;;;7.03;;
45206;SDS011;30950;53.086;21.576;2023-02-28T11:14:53;10.60;;;6.85;;
45206;SDS011;30950;53.086;21.576;2023-02-28T11:17:25;13.98;;;6.88;;
45206;SDS011;30950;53.086;21.576;2023-02-28T11:20:01;37.35;;;22.88;;
45206;SDS011;30950;53.086;21.576;2023-02-28T11:22:35;10.98;;;6.30;;
45206;SDS011;30950;53.086;21.576;2023-02-28T11:27:53;10.73;;;6.20;;
45206;SDS011;30950;53.086;21.576;2023-02-28T11:30:29;23.92;;;13.32;;
45206;SDS011;30950;53.086;21.576;2023-02-28T11:32:57;10.98;;;7.15;;
45206;SDS011;30950;53.086;21.576;2023-02-28T11:35:35;25.92;;;13.70;;
45206;SDS011;30950;53.086;21.576;2023-02-28T11:38:09;35.55;;;15.00;;
45206;SDS011;30950;53.086;21.576;2023-02-28T11:40:52;17.33;;;6.45;;
45206;SDS011;30950;53.086;21.576;2023-02-28T11:49:12;34.13;;;19.42;;
45206;SDS011;30950;53.086;21.576;2023-02-28T11:55:07;24.13;;;11.40;;
45206;SDS011;30950;53.086;21.576;2023-02-28T12:06:25;16.80;;;9.98;;
45206;SDS011;30950;53.086;21.576;2023-02-28T12:26:38;11.98;;;6.60;;
45206;SDS011;30950;53.086;21.576;2023-02-28T12:31:20;13.23;;;6.97;;
45206;SDS011;30950;53.086;21.576;2023-02-28T12:33:51;14.95;;;9.05;;
45206;SDS011;30950;53.086;21.576;2023-02-28T12:36:23;12.52;;;7.93;;
45206;SDS011;30950;53.086;21.576;2023-02-28T12:39:00;11.82;;;6.75;;
45206;SDS011;30950;53.086;21.576;2023-02-28T12:41:46;10.70;;;6.90;;
45206;SDS011;30950;53.086;21.576;2023-02-28T12:44:33;14.00;;;8.32;;
45206;SDS011;30950;53.086;21.576;2023-02-28T12:47:15;14.60;;;9.30;;
45206;SDS011;30950;53.086;21.576;2023-02-28T12:49:56;11.95;;;9.13;;
45206;SDS011;30950;53.086;21.576;2023-02-28T12:52:35;13.65;;;8.02;;
45206;SDS011;30950;53.086;21.576;2023-02-28T13:09:15;25.67;;;16.15;;
45206;SDS011;30950;53.086;21.576;2023-02-28T13:11:48;13.45;;;7.75;;
45206;SDS011;30950;53.086;21.576;2023-02-28T13:16:58;14.50;;;9.32;;
45206;SDS011;30950;53.086;21.576;2023-02-28T13:19:30;12.32;;;7.50;;
45206;SDS011;30950;53.086;21.576;2023-02-28T13:22:00;18.85;;;11.98;;
45206;SDS011;30950;53.086;21.576;2023-02-28T13:24:39;14.02;;;8.43;;
45206;SDS011;30950;53.086;21.576;2023-02-28T13:29:39;13.60;;;8.75;;
45206;SDS011;30950;53.086;21.576;2023-02-28T13:34:37;19.98;;;11.05;;
45206;SDS011;30950;53.086;21.576;2023-02-28T13:39:49;20.92;;;9.90;;
45206;SDS011;30950;53.086;21.576;2023-02-28T13:59:35;16.05;;;9.93;;
45206;SDS011;30950;53.086;21.576;2023-02-28T14:07:42;22.27;;;13.10;;
45206;SDS011;30950;53.086;21.576;2023-02-28T14:10:47;14.02;;;8.60;;
45206;SDS011;30950;53.086;21.576;2023-02-28T14:16:23;14.10;;;8.60;;
45206;SDS011;30950;53.086;21.576;2023-02-28T14:18:58;12.77;;;9.18;;
45206;SDS011;30950;53.086;21.576;2023-02-28T14:21:34;12.52;;;7.15;;
45206;SDS011;30950;53.086;21.576;2023-02-28T14:40:40;15.20;;;7.95;;
45206;SDS011;30950;53.086;21.576;2023-02-28T14:43:24;12.73;;;7.80;;
45206;SDS011;30950;53.086;21.576;2023-02-28T14:46:02;13.70;;;8.07;;
45206;SDS011;30950;53.086;21.576;2023-02-28T14:48:33;12.25;;;7.70;;
45206;SDS011;30950;53.086;21.576;2023-02-28T14:51:01;12.23;;;8.13;;
45206;SDS011;30950;53.086;21.576;2023-02-28T14:53:30;40.65;;;15.55;;
45206;SDS011;30950;53.086;21.576;2023-02-28T14:56:02;25.95;;;12.00;;
45206;SDS011;30950;53.086;21.576;2023-02-28T14:58:31;18.00;;;8.65;;
45206;SDS011;30950;53.086;21.576;2023-02-28T15:01:01;13.63;;;8.25;;
45206;SDS011;30950;53.086;21.576;2023-02-28T15:06:00;18.73;;;9.23;;
45206;SDS011;30950;53.086;21.576;2023-02-28T15:08:32;15.27;;;8.15;;
45206;SDS011;30950;53.086;21.576;2023-02-28T15:11:16;12.35;;;7.40;;
45206;SDS011;30950;53.086;21.576;2023-02-28T15:13:47;15.38;;;8.50;;
45206;SDS011;30950;53.086;21.576;2023-02-28T15:16:20;13.45;;;8.15;;
45206;SDS011;30950;53.086;21.576;2023-02-28T15:21:41;13.80;;;8.38;;
45206;SDS011;30950;53.086;21.576;2023-02-28T15:24:19;14.27;;;8.00;;
45206;SDS011;30950;53.086;21.576;2023-02-28T15:27:13;14.98;;;8.40;;
45206;SDS011;30950;53.086;21.576;2023-02-28T15:29:48;20.50;;;11.65;;
45206;SDS011;30950;53.086;21.576;2023-02-28T15:32:24;55.35;;;27.92;;
45206;SDS011;30950;53.086;21.576;2023-02-28T15:34:59;20.20;;;10.45;;
45206;SDS011;30950;53.086;21.576;2023-02-28T15:37:46;18.92;;;9.50;;
45206;SDS011;30950;53.086;21.576;2023-02-28T15:40:28;17.20;;;8.60;;
45206;SDS011;30950;53.086;21.576;2023-02-28T15:43:11;17.75;;;8.77;;
45206;SDS011;30950;53.086;21.576;2023-02-28T15:45:50;30.77;;;18.90;;
45206;SDS011;30950;53.086;21.576;2023-02-28T15:48:31;32.35;;;19.40;;
45206;SDS011;30950;53.086;21.576;2023-02-28T15:51:09;30.33;;;17.17;;
45206;SDS011;30950;53.086;21.576;2023-02-28T15:54:04;39.70;;;21.33;;
45206;SDS011;30950;53.086;21.576;2023-02-28T15:56:48;26.20;;;13.40;;
45206;SDS011;30950;53.086;21.576;2023-02-28T15:59:26;37.97;;;18.35;;
45206;SDS011;30950;53.086;21.576;2023-02-28T16:04:54;26.25;;;14.30;;
45206;SDS011;30950;53.086;21.576;2023-02-28T16:07:35;30.30;;;15.80;;
45206;SDS011;30950;53.086;21.576;2023-02-28T16:10:04;33.28;;;17.45;;
45206;SDS011;30950;53.086;21.576;2023-02-28T16:12:33;30.48;;;14.70;;
45206;SDS011;30950;53.086;21.576;2023-02-28T16:15:23;30.50;;;15.13;;
45206;SDS011;30950;53.086;21.576;2023-02-28T16:17:56;37.15;;;15.55;;
45206;SDS011;30950;53.086;21.576;2023-02-28T16:20:27;43.35;;;17.42;;
45206;SDS011;30950;53.086;21.576;2023-02-28T16:22:56;33.88;;;17.60;;
45206;SDS011;30950;53.086;21.576;2023-02-28T16:25:37;47.60;;;23.50;;
45206;SDS011;30950;53.086;21.576;2023-02-28T16:30:48;68.75;;;32.10;;
45206;SDS011;30950;53.086;21.576;2023-02-28T16:33:18;57.63;;;29.17;;
45206;SDS011;30950;53.086;21.576;2023-02-28T16:35:46;71.05;;;33.67;;
45206;SDS011;30950;53.086;21.576;2023-02-28T16:38:13;94.28;;;41.25;;
45206;SDS011;30950;53.086;21.576;2023-02-28T16:40:41;118.32;;;52.90;;
45206;SDS011;30950;53.086;21.576;2023-02-28T16:43:10;119.20;;;53.70;;
45206;SDS011;30950;53.086;21.576;2023-02-28T16:45:43;106.32;;;49.80;;
45206;SDS011;30950;53.086;21.576;2023-02-28T16:48:13;84.18;;;39.90;;
45206;SDS011;30950;53.086;21.576;2023-02-28T16:50:42;79.05;;;39.05;;
45206;SDS011;30950;53.086;21.576;2023-02-28T16:53:12;76.78;;;36.50;;
45206;SDS011;30950;53.086;21.576;2023-02-28T16:55:40;78.70;;;36.95;;
45206;SDS011;30950;53.086;21.576;2023-02-28T16:58:10;66.90;;;32.03;;
45206;SDS011;30950;53.086;21.576;2023-02-28T17:00:41;59.53;;;28.75;;
45206;SDS011;30950;53.086;21.576;2023-02-28T17:03:15;51.47;;;26.60;;
45206;SDS011;30950;53.086;21.576;2023-02-28T17:05:58;46.28;;;23.08;;
45206;SDS011;30950;53.086;21.576;2023-02-28T17:08:26;57.45;;;24.85;;
45206;SDS011;30950;53.086;21.576;2023-02-28T17:10:55;48.63;;;24.95;;
45206;SDS011;30950;53.086;21.576;2023-02-28T17:13:23;52.95;;;27.40;;
45206;SDS011;30950;53.086;21.576;2023-02-28T17:15:50;48.38;;;24.08;;
45206;SDS011;30950;53.086;21.576;2023-02-28T17:18:18;41.97;;;23.20;;
45206;SDS011;30950;53.086;21.576;2023-02-28T17:20:47;51.25;;;25.98;;
45206;SDS011;30950;53.086;21.576;2023-02-28T17:23:16;52.47;;;26.65;;
45206;SDS011;30950;53.086;21.576;2023-02-28T17:25:43;59.03;;;27.40;;
45206;SDS011;30950;53.086;21.576;2023-02-28T17:28:23;51.55;;;27.88;;
45206;SDS011;30950;53.086;21.576;2023-02-28T17:30:50;63.00;;;31.23;;
45206;SDS011;30950;53.086;21.576;2023-02-28T17:33:18;61.33;;;30.38;;
45206;SDS011;30950;53.086;21.576;2023-02-28T17:35:45;57.20;;;29.70;;